sensor_id;sensor_type;location;lat;lon;timestamp;P1;durP1;ratioP1;P2;durP2;ratioP2
65545;SDS011;52177;55.968;37.498;2023-08-17T00:00:16;11.48;;;9.10;;
65545;SDS011;52177;55.968;37.498;2023-08-17T00:00:48;11.18;;;8.02;;
65545;SDS011;52177;55.968;37.498;2023-08-17T00:01:19;14.23;;;8.25;;
65545;SDS011;52177;55.968;37.498;2023-08-17T00:01:49;18.65;;;8.75;;
65545;SDS011;52177;55.968;37.498;2023-08-17T00:02:20;8.93;;;8.02;;
65545;SDS011;52177;55.968;37.498;2023-08-17T00:02:50;16.58;;;8.43;;
65545;SDS011;52177;55.968;37.498;2023-08-17T00:03:20;13.25;;;8.27;;
65545;SDS011;52177;55.968;37.498;2023-08-17T00:03:51;10.48;;;8.23;;
65545;SDS011;52177;55.968;37.498;2023-08-17T00:04:21;14.02;;;7.88;;
65545;SDS011;52177;55.968;37.498;2023-08-17T00:04:52;13.10;;;8.68;;
65545;SDS011;52177;55.968;37.498;2023-08-17T00:05:22;13.27;;;8.35;;
65545;SDS011;52177;55.968;37.498;2023-08-17T00:05:53;12.45;;;8.05;;
65545;SDS011;52177;55.968;37.498;2023-08-17T00:06:23;11.05;;;8.55;;
65545;SDS011;52177;55.968;37.498;2023-08-17T00:06:54;15.40;;;8.50;;
65545;SDS011;52177;55.968;37.498;2023-08-17T00:07:24;14.75;;;8.80;;
65545;SDS011;52177;55.968;37.498;2023-08-17T00:07:54;12.70;;;8.27;;
65545;SDS011;52177;55.968;37.498;2023-08-17T00:08:25;14.57;;;8.35;;
65545;SDS011;52177;55.968;37.498;2023-08-17T00:08:55;12.88;;;9.50;;
65545;SDS011;52177;55.968;37.498;2023-08-17T00:09:26;11.18;;;7.95;;
65545;SDS011;52177;55.968;37.498;2023-08-17T00:09:56;10.55;;;9.05;;
65545;SDS011;52177;55.968;37.498;2023-08-17T00:10:26;16.67;;;7.90;;
65545;SDS011;52177;55.968;37.498;2023-08-17T00:10:57;10.40;;;8.25;;
65545;SDS011;52177;55.968;37.498;2023-08-17T00:11:27;12.18;;;8.25;;
65545;SDS011;52177;55.968;37.498;2023-08-17T00:11:58;13.00;;;8.73;;
65545;SDS011;52177;55.968;37.498;2023-08-17T00:12:28;16.85;;;9.18;;
65545;SDS011;52177;55.968;37.498;2023-08-17T00:12:59;12.85;;;8.63;;
65545;SDS011;52177;55.968;37.498;2023-08-17T00:13:30;11.95;;;8.55;;
65545;SDS011;52177;55.968;37.498;2023-08-17T00:14:00;16.23;;;8.18;;
65545;SDS011;52177;55.968;37.498;2023-08-17T00:14:31;13.70;;;9.02;;
65545;SDS011;52177;55.968;37.498;2023-08-17T00:15:01;12.60;;;8.25;;
65545;SDS011;52177;55.968;37.498;2023-08-17T00:15:32;15.13;;;8.73;;
65545;SDS011;52177;55.968;37.498;2023-08-17T00:16:02;11.73;;;7.75;;
65545;SDS011;52177;55.968;37.498;2023-08-17T00:16:33;10.15;;;7.53;;
65545;SDS011;52177;55.968;37.498;2023-08-17T00:17:03;13.85;;;8.40;;
65545;SDS011;52177;55.968;37.498;2023-08-17T00:17:34;8.65;;;7.63;;
65545;SDS011;52177;55.968;37.498;2023-08-17T00:18:04;16.13;;;8.35;;
65545;SDS011;52177;55.968;37.498;2023-08-17T00:18:35;11.68;;;7.93;;
65545;SDS011;52177;55.968;37.498;2023-08-17T00:19:05;10.07;;;7.60;;
65545;SDS011;52177;55.968;37.498;2023-08-17T00:19:35;11.55;;;8.43;;
65545;SDS011;52177;55.968;37.498;2023-08-17T00:20:06;10.98;;;7.80;;
65545;SDS011;52177;55.968;37.498;2023-08-17T00:20:37;13.57;;;8.10;;
65545;SDS011;52177;55.968;37.498;2023-08-17T00:21:07;11.18;;;8.10;;
65545;SDS011;52177;55.968;37.498;2023-08-17T00:21:38;15.75;;;7.75;;
65545;SDS011;52177;55.968;37.498;2023-08-17T00:22:08;14.52;;;8.25;;
65545;SDS011;52177;55.968;37.498;2023-08-17T00:22:39;13.98;;;8.20;;
65545;SDS011;52177;55.968;37.498;2023-08-17T00:23:10;12.75;;;7.63;;
65545;SDS011;52177;55.968;37.498;2023-08-17T00:23:40;9.85;;;7.85;;
65545;SDS011;52177;55.968;37.498;2023-08-17T00:24:11;14.13;;;8.68;;
65545;SDS011;52177;55.968;37.498;2023-08-17T00:24:41;15.90;;;8.85;;
65545;SDS011;52177;55.968;37.498;2023-08-17T00:25:14;12.55;;;7.68;;
65545;SDS011;52177;55.968;37.498;2023-08-17T00:25:45;12.30;;;8.10;;
65545;SDS011;52177;55.968;37.498;2023-08-17T00:26:17;13.90;;;9.15;;
65545;SDS011;52177;55.968;37.498;2023-08-17T00:26:48;11.15;;;7.38;;
65545;SDS011;52177;55.968;37.498;2023-08-17T00:27:18;11.35;;;7.78;;
65545;SDS011;52177;55.968;37.498;2023-08-17T00:27:48;11.65;;;7.90;;
65545;SDS011;52177;55.968;37.498;2023-08-17T00:28:19;11.10;;;8.18;;
65545;SDS011;52177;55.968;37.498;2023-08-17T00:28:49;12.73;;;8.52;;
65545;SDS011;52177;55.968;37.498;2023-08-17T00:29:19;10.30;;;7.90;;
65545;SDS011;52177;55.968;37.498;2023-08-17T00:29:50;10.98;;;7.57;;
65545;SDS011;52177;55.968;37.498;2023-08-17T00:30:20;13.25;;;8.13;;
65545;SDS011;52177;55.968;37.498;2023-08-17T00:30:51;13.38;;;8.20;;
65545;SDS011;52177;55.968;37.498;2023-08-17T00:31:21;8.52;;;7.63;;
65545;SDS011;52177;55.968;37.498;2023-08-17T00:31:52;13.20;;;8.10;;
65545;SDS011;52177;55.968;37.498;2023-08-17T00:32:22;10.73;;;7.80;;
65545;SDS011;52177;55.968;37.498;2023-08-17T00:32:52;11.18;;;8.15;;
65545;SDS011;52177;55.968;37.498;2023-08-17T00:33:23;8.88;;;7.18;;
65545;SDS011;52177;55.968;37.498;2023-08-17T00:33:53;13.57;;;7.85;;
65545;SDS011;52177;55.968;37.498;2023-08-17T00:34:24;15.43;;;7.97;;
65545;SDS011;52177;55.968;37.498;2023-08-17T00:34:54;10.15;;;7.65;;
65545;SDS011;52177;55.968;37.498;2023-08-17T00:35:24;11.25;;;8.73;;
65545;SDS011;52177;55.968;37.498;2023-08-17T00:35:55;9.85;;;7.78;;
65545;SDS011;52177;55.968;37.498;2023-08-17T00:36:25;11.80;;;7.68;;
65545;SDS011;52177;55.968;37.498;2023-08-17T00:36:55;12.13;;;7.82;;
65545;SDS011;52177;55.968;37.498;2023-08-17T00:37:26;10.88;;;8.48;;
65545;SDS011;52177;55.968;37.498;2023-08-17T00:37:56;12.27;;;7.80;;
65545;SDS011;52177;55.968;37.498;2023-08-17T00:38:27;13.13;;;8.43;;
65545;SDS011;52177;55.968;37.498;2023-08-17T00:38:57;8.70;;;7.60;;
65545;SDS011;52177;55.968;37.498;2023-08-17T00:39:27;10.80;;;8.00;;
65545;SDS011;52177;55.968;37.498;2023-08-17T00:39:58;10.82;;;7.45;;
65545;SDS011;52177;55.968;37.498;2023-08-17T00:40:28;12.85;;;7.95;;
65545;SDS011;52177;55.968;37.498;2023-08-17T00:40:59;8.52;;;7.22;;
65545;SDS011;52177;55.968;37.498;2023-08-17T00:41:29;13.20;;;8.30;;
65545;SDS011;52177;55.968;37.498;2023-08-17T00:42:00;11.23;;;7.80;;
65545;SDS011;52177;55.968;37.498;2023-08-17T00:42:30;16.52;;;7.95;;
65545;SDS011;52177;55.968;37.498;2023-08-17T00:43:01;11.18;;;7.70;;
65545;SDS011;52177;55.968;37.498;2023-08-17T00:43:32;12.25;;;8.00;;
65545;SDS011;52177;55.968;37.498;2023-08-17T00:44:02;10.77;;;7.82;;
65545;SDS011;52177;55.968;37.498;2023-08-17T00:44:33;11.52;;;8.02;;
65545;SDS011;52177;55.968;37.498;2023-08-17T00:45:03;10.93;;;8.10;;
65545;SDS011;52177;55.968;37.498;2023-08-17T00:45:34;10.10;;;7.88;;
65545;SDS011;52177;55.968;37.498;2023-08-17T00:46:05;13.48;;;7.90;;
65545;SDS011;52177;55.968;37.498;2023-08-17T00:46:35;12.10;;;7.85;;
65545;SDS011;52177;55.968;37.498;2023-08-17T00:47:06;11.05;;;8.02;;
65545;SDS011;52177;55.968;37.498;2023-08-17T00:47:37;11.18;;;8.57;;
65545;SDS011;52177;55.968;37.498;2023-08-17T00:48:08;13.63;;;8.07;;
65545;SDS011;52177;55.968;37.498;2023-08-17T00:48:39;11.38;;;7.78;;
65545;SDS011;52177;55.968;37.498;2023-08-17T00:49:10;13.23;;;8.18;;
65545;SDS011;52177;55.968;37.498;2023-08-17T00:49:41;12.07;;;8.05;;
65545;SDS011;52177;55.968;37.498;2023-08-17T00:50:11;11.80;;;8.00;;
65545;SDS011;52177;55.968;37.498;2023-08-17T00:50:43;14.40;;;7.80;;
65545;SDS011;52177;55.968;37.498;2023-08-17T00:51:14;10.55;;;8.02;;
65545;SDS011;52177;55.968;37.498;2023-08-17T00:51:45;10.65;;;7.28;;
65545;SDS011;52177;55.968;37.498;2023-08-17T00:52:16;11.93;;;7.43;;
65545;SDS011;52177;55.968;37.498;2023-08-17T00:52:46;10.90;;;7.93;;
65545;SDS011;52177;55.968;37.498;2023-08-17T00:53:17;9.18;;;7.35;;
65545;SDS011;52177;55.968;37.498;2023-08-17T00:53:50;9.80;;;7.15;;
65545;SDS011;52177;55.968;37.498;2023-08-17T00:54:23;11.90;;;8.05;;
65545;SDS011;52177;55.968;37.498;2023-08-17T00:54:56;10.32;;;8.07;;
65545;SDS011;52177;55.968;37.498;2023-08-17T00:55:27;12.77;;;7.50;;
65545;SDS011;52177;55.968;37.498;2023-08-17T00:55:58;8.77;;;7.88;;
65545;SDS011;52177;55.968;37.498;2023-08-17T00:56:30;11.60;;;7.88;;
65545;SDS011;52177;55.968;37.498;2023-08-17T00:57:00;8.32;;;7.47;;
65545;SDS011;52177;55.968;37.498;2023-08-17T00:57:31;12.98;;;7.95;;
65545;SDS011;52177;55.968;37.498;2023-08-17T00:58:03;10.93;;;7.32;;
65545;SDS011;52177;55.968;37.498;2023-08-17T00:58:33;10.25;;;7.55;;
65545;SDS011;52177;55.968;37.498;2023-08-17T00:59:04;13.35;;;8.45;;
65545;SDS011;52177;55.968;37.498;2023-08-17T00:59:35;14.43;;;8.38;;
65545;SDS011;52177;55.968;37.498;2023-08-17T01:00:06;11.32;;;8.05;;
65545;SDS011;52177;55.968;37.498;2023-08-17T01:00:38;11.45;;;8.18;;
65545;SDS011;52177;55.968;37.498;2023-08-17T01:01:08;16.58;;;8.32;;
65545;SDS011;52177;55.968;37.498;2023-08-17T01:01:39;12.20;;;7.75;;
65545;SDS011;52177;55.968;37.498;2023-08-17T01:02:09;14.60;;;7.72;;
65545;SDS011;52177;55.968;37.498;2023-08-17T01:02:41;9.65;;;7.65;;
65545;SDS011;52177;55.968;37.498;2023-08-17T01:03:11;14.32;;;7.65;;
65545;SDS011;52177;55.968;37.498;2023-08-17T01:03:42;10.88;;;7.85;;
65545;SDS011;52177;55.968;37.498;2023-08-17T01:04:12;13.52;;;7.60;;
65545;SDS011;52177;55.968;37.498;2023-08-17T01:04:43;12.20;;;7.55;;
65545;SDS011;52177;55.968;37.498;2023-08-17T01:05:13;12.38;;;8.20;;
65545;SDS011;52177;55.968;37.498;2023-08-17T01:05:44;9.25;;;7.18;;
65545;SDS011;52177;55.968;37.498;2023-08-17T01:06:14;10.82;;;8.00;;
65545;SDS011;52177;55.968;37.498;2023-08-17T01:06:45;13.38;;;7.22;;
65545;SDS011;52177;55.968;37.498;2023-08-17T01:07:15;10.85;;;7.85;;
65545;SDS011;52177;55.968;37.498;2023-08-17T01:07:46;13.00;;;7.95;;
65545;SDS011;52177;55.968;37.498;2023-08-17T01:08:16;14.77;;;8.35;;
65545;SDS011;52177;55.968;37.498;2023-08-17T01:08:46;11.65;;;7.75;;
65545;SDS011;52177;55.968;37.498;2023-08-17T01:09:17;12.63;;;7.90;;
65545;SDS011;52177;55.968;37.498;2023-08-17T01:09:48;11.73;;;7.63;;
65545;SDS011;52177;55.968;37.498;2023-08-17T01:10:18;10.35;;;8.05;;
65545;SDS011;52177;55.968;37.498;2023-08-17T01:10:55;11.60;;;7.25;;
65545;SDS011;52177;55.968;37.498;2023-08-17T01:11:34;16.42;;;7.95;;
65545;SDS011;52177;55.968;37.498;2023-08-17T01:12:13;9.63;;;7.68;;
65545;SDS011;52177;55.968;37.498;2023-08-17T01:12:48;10.75;;;7.63;;
65545;SDS011;52177;55.968;37.498;2023-08-17T01:13:55;9.70;;;7.97;;
65545;SDS011;52177;55.968;37.498;2023-08-17T01:15:38;12.80;;;7.65;;
65545;SDS011;52177;55.968;37.498;2023-08-17T01:16:14;12.40;;;7.32;;
65545;SDS011;52177;55.968;37.498;2023-08-17T01:16:55;10.93;;;7.63;;
65545;SDS011;52177;55.968;37.498;2023-08-17T01:17:37;9.68;;;7.10;;
65545;SDS011;52177;55.968;37.498;2023-08-17T01:18:20;8.52;;;7.43;;
65545;SDS011;52177;55.968;37.498;2023-08-17T01:18:53;11.82;;;7.22;;
65545;SDS011;52177;55.968;37.498;2023-08-17T01:19:28;10.93;;;7.28;;
65545;SDS011;52177;55.968;37.498;2023-08-17T01:19:58;13.90;;;7.75;;
65545;SDS011;52177;55.968;37.498;2023-08-17T01:20:34;10.55;;;7.75;;
65545;SDS011;52177;55.968;37.498;2023-08-17T01:21:05;10.73;;;7.20;;
65545;SDS011;52177;55.968;37.498;2023-08-17T01:21:41;11.98;;;7.68;;
65545;SDS011;52177;55.968;37.498;2023-08-17T01:22:14;11.15;;;7.47;;
65545;SDS011;52177;55.968;37.498;2023-08-17T01:22:48;10.50;;;7.22;;
65545;SDS011;52177;55.968;37.498;2023-08-17T01:23:21;10.02;;;7.70;;
65545;SDS011;52177;55.968;37.498;2023-08-17T01:23:52;11.25;;;7.07;;
65545;SDS011;52177;55.968;37.498;2023-08-17T01:24:28;13.05;;;7.97;;
65545;SDS011;52177;55.968;37.498;2023-08-17T01:24:59;12.82;;;7.22;;
65545;SDS011;52177;55.968;37.498;2023-08-17T01:25:29;11.57;;;7.72;;
65545;SDS011;52177;55.968;37.498;2023-08-17T01:26:00;13.02;;;7.50;;
65545;SDS011;52177;55.968;37.498;2023-08-17T01:26:30;9.57;;;7.25;;
65545;SDS011;52177;55.968;37.498;2023-08-17T01:27:01;10.07;;;7.43;;
65545;SDS011;52177;55.968;37.498;2023-08-17T01:27:33;10.38;;;6.97;;
65545;SDS011;52177;55.968;37.498;2023-08-17T01:28:09;12.63;;;7.55;;
65545;SDS011;52177;55.968;37.498;2023-08-17T01:28:40;8.07;;;7.28;;
65545;SDS011;52177;55.968;37.498;2023-08-17T01:29:10;10.77;;;7.13;;
65545;SDS011;52177;55.968;37.498;2023-08-17T01:29:41;10.07;;;7.80;;
65545;SDS011;52177;55.968;37.498;2023-08-17T01:30:14;13.07;;;7.70;;
65545;SDS011;52177;55.968;37.498;2023-08-17T01:31:44;9.88;;;7.47;;
65545;SDS011;52177;55.968;37.498;2023-08-17T01:32:24;13.18;;;7.53;;
65545;SDS011;52177;55.968;37.498;2023-08-17T01:33:29;11.55;;;7.40;;
65545;SDS011;52177;55.968;37.498;2023-08-17T01:34:06;9.30;;;7.47;;
65545;SDS011;52177;55.968;37.498;2023-08-17T01:34:40;13.20;;;7.35;;
65545;SDS011;52177;55.968;37.498;2023-08-17T01:36:01;10.95;;;8.10;;
65545;SDS011;52177;55.968;37.498;2023-08-17T01:36:42;12.13;;;7.95;;
65545;SDS011;52177;55.968;37.498;2023-08-17T01:37:18;11.65;;;7.50;;
65545;SDS011;52177;55.968;37.498;2023-08-17T01:37:51;9.80;;;7.43;;
65545;SDS011;52177;55.968;37.498;2023-08-17T01:38:23;9.90;;;7.18;;
65545;SDS011;52177;55.968;37.498;2023-08-17T01:38:55;10.88;;;7.60;;
65545;SDS011;52177;55.968;37.498;2023-08-17T01:39:27;11.32;;;7.82;;
65545;SDS011;52177;55.968;37.498;2023-08-17T01:40:05;11.05;;;7.00;;
65545;SDS011;52177;55.968;37.498;2023-08-17T01:40:37;10.25;;;7.07;;
65545;SDS011;52177;55.968;37.498;2023-08-17T01:41:09;10.95;;;7.22;;
65545;SDS011;52177;55.968;37.498;2023-08-17T01:41:45;10.05;;;6.65;;
65545;SDS011;52177;55.968;37.498;2023-08-17T01:42:17;10.15;;;7.07;;
65545;SDS011;52177;55.968;37.498;2023-08-17T01:42:49;12.02;;;7.93;;
65545;SDS011;52177;55.968;37.498;2023-08-17T01:43:20;11.85;;;7.38;;
65545;SDS011;52177;55.968;37.498;2023-08-17T01:43:51;12.70;;;7.85;;
65545;SDS011;52177;55.968;37.498;2023-08-17T01:44:24;11.90;;;7.03;;
65545;SDS011;52177;55.968;37.498;2023-08-17T01:44:56;10.50;;;6.82;;
65545;SDS011;52177;55.968;37.498;2023-08-17T01:45:26;13.32;;;7.78;;
65545;SDS011;52177;55.968;37.498;2023-08-17T01:45:57;14.15;;;7.82;;
65545;SDS011;52177;55.968;37.498;2023-08-17T01:46:30;11.13;;;6.75;;
65545;SDS011;52177;55.968;37.498;2023-08-17T01:47:03;11.73;;;6.93;;
65545;SDS011;52177;55.968;37.498;2023-08-17T01:47:33;10.88;;;7.20;;
65545;SDS011;52177;55.968;37.498;2023-08-17T01:48:05;12.70;;;7.65;;
65545;SDS011;52177;55.968;37.498;2023-08-17T01:48:36;10.30;;;7.65;;
65545;SDS011;52177;55.968;37.498;2023-08-17T01:49:06;12.98;;;7.35;;
65545;SDS011;52177;55.968;37.498;2023-08-17T01:49:36;11.43;;;7.05;;
65545;SDS011;52177;55.968;37.498;2023-08-17T01:50:07;11.02;;;7.18;;
65545;SDS011;52177;55.968;37.498;2023-08-17T01:50:38;13.77;;;7.45;;
65545;SDS011;52177;55.968;37.498;2023-08-17T01:51:09;11.32;;;6.78;;
65545;SDS011;52177;55.968;37.498;2023-08-17T01:51:40;11.90;;;7.10;;
65545;SDS011;52177;55.968;37.498;2023-08-17T01:52:11;9.48;;;6.85;;
65545;SDS011;52177;55.968;37.498;2023-08-17T01:52:41;9.88;;;6.95;;
65545;SDS011;52177;55.968;37.498;2023-08-17T01:53:12;15.50;;;7.63;;
65545;SDS011;52177;55.968;37.498;2023-08-17T01:53:42;11.73;;;6.80;;
65545;SDS011;52177;55.968;37.498;2023-08-17T01:54:13;9.27;;;7.28;;
65545;SDS011;52177;55.968;37.498;2023-08-17T01:54:43;11.07;;;7.05;;
65545;SDS011;52177;55.968;37.498;2023-08-17T01:55:13;11.23;;;7.22;;
65545;SDS011;52177;55.968;37.498;2023-08-17T01:55:44;11.90;;;6.85;;
65545;SDS011;52177;55.968;37.498;2023-08-17T01:56:14;12.07;;;7.78;;
65545;SDS011;52177;55.968;37.498;2023-08-17T01:56:45;12.30;;;6.85;;
65545;SDS011;52177;55.968;37.498;2023-08-17T01:57:15;12.65;;;7.50;;
65545;SDS011;52177;55.968;37.498;2023-08-17T01:57:45;12.90;;;6.80;;
65545;SDS011;52177;55.968;37.498;2023-08-17T01:58:16;8.68;;;6.55;;
65545;SDS011;52177;55.968;37.498;2023-08-17T01:58:46;8.30;;;6.53;;
65545;SDS011;52177;55.968;37.498;2023-08-17T01:59:17;12.40;;;6.82;;
65545;SDS011;52177;55.968;37.498;2023-08-17T01:59:47;9.38;;;6.88;;
65545;SDS011;52177;55.968;37.498;2023-08-17T02:00:17;13.45;;;7.32;;
65545;SDS011;52177;55.968;37.498;2023-08-17T02:00:48;10.50;;;7.28;;
65545;SDS011;52177;55.968;37.498;2023-08-17T02:01:18;9.18;;;6.70;;
65545;SDS011;52177;55.968;37.498;2023-08-17T02:01:49;9.57;;;6.88;;
65545;SDS011;52177;55.968;37.498;2023-08-17T02:02:19;11.38;;;7.35;;
65545;SDS011;52177;55.968;37.498;2023-08-17T02:02:51;9.35;;;6.75;;
65545;SDS011;52177;55.968;37.498;2023-08-17T02:03:22;9.77;;;6.70;;
65545;SDS011;52177;55.968;37.498;2023-08-17T02:03:52;10.15;;;7.15;;
65545;SDS011;52177;55.968;37.498;2023-08-17T02:04:22;11.93;;;6.50;;
65545;SDS011;52177;55.968;37.498;2023-08-17T02:04:54;11.70;;;6.93;;
65545;SDS011;52177;55.968;37.498;2023-08-17T02:05:24;11.30;;;7.07;;
65545;SDS011;52177;55.968;37.498;2023-08-17T02:06:00;9.88;;;6.60;;
65545;SDS011;52177;55.968;37.498;2023-08-17T02:06:31;10.43;;;6.95;;
65545;SDS011;52177;55.968;37.498;2023-08-17T02:07:01;11.13;;;6.70;;
65545;SDS011;52177;55.968;37.498;2023-08-17T02:07:32;12.73;;;7.07;;
65545;SDS011;52177;55.968;37.498;2023-08-17T02:08:02;8.98;;;6.47;;
65545;SDS011;52177;55.968;37.498;2023-08-17T02:08:33;12.02;;;6.65;;
65545;SDS011;52177;55.968;37.498;2023-08-17T02:09:05;11.80;;;7.07;;
65545;SDS011;52177;55.968;37.498;2023-08-17T02:09:35;13.02;;;7.20;;
65545;SDS011;52177;55.968;37.498;2023-08-17T02:10:06;9.73;;;6.82;;
65545;SDS011;52177;55.968;37.498;2023-08-17T02:10:36;9.50;;;7.03;;
65545;SDS011;52177;55.968;37.498;2023-08-17T02:11:07;10.00;;;7.10;;
65545;SDS011;52177;55.968;37.498;2023-08-17T02:11:39;9.80;;;6.45;;
65545;SDS011;52177;55.968;37.498;2023-08-17T02:12:10;11.85;;;6.88;;
65545;SDS011;52177;55.968;37.498;2023-08-17T02:12:40;13.02;;;6.95;;
65545;SDS011;52177;55.968;37.498;2023-08-17T02:13:10;11.40;;;6.53;;
65545;SDS011;52177;55.968;37.498;2023-08-17T02:13:41;10.52;;;6.57;;
65545;SDS011;52177;55.968;37.498;2023-08-17T02:14:11;16.40;;;7.38;;
65545;SDS011;52177;55.968;37.498;2023-08-17T02:14:41;12.45;;;7.28;;
65545;SDS011;52177;55.968;37.498;2023-08-17T02:15:12;8.60;;;6.40;;
65545;SDS011;52177;55.968;37.498;2023-08-17T02:15:42;11.18;;;7.05;;
65545;SDS011;52177;55.968;37.498;2023-08-17T02:16:13;8.27;;;5.90;;
65545;SDS011;52177;55.968;37.498;2023-08-17T02:16:43;9.93;;;6.65;;
65545;SDS011;52177;55.968;37.498;2023-08-17T02:17:13;12.15;;;6.72;;
65545;SDS011;52177;55.968;37.498;2023-08-17T02:17:46;10.27;;;7.00;;
65545;SDS011;52177;55.968;37.498;2023-08-17T02:18:16;12.60;;;7.25;;
65545;SDS011;52177;55.968;37.498;2023-08-17T02:18:47;12.18;;;7.97;;
65545;SDS011;52177;55.968;37.498;2023-08-17T02:19:17;10.25;;;6.60;;
65545;SDS011;52177;55.968;37.498;2023-08-17T02:19:48;10.80;;;6.82;;
65545;SDS011;52177;55.968;37.498;2023-08-17T02:20:18;10.60;;;6.95;;
65545;SDS011;52177;55.968;37.498;2023-08-17T02:20:49;10.88;;;6.60;;
65545;SDS011;52177;55.968;37.498;2023-08-17T02:21:19;7.75;;;6.18;;
65545;SDS011;52177;55.968;37.498;2023-08-17T02:21:50;9.32;;;6.60;;
65545;SDS011;52177;55.968;37.498;2023-08-17T02:22:20;15.65;;;7.05;;
65545;SDS011;52177;55.968;37.498;2023-08-17T02:22:50;11.90;;;6.82;;
65545;SDS011;52177;55.968;37.498;2023-08-17T02:23:21;15.05;;;7.18;;
65545;SDS011;52177;55.968;37.498;2023-08-17T02:23:51;11.30;;;6.43;;
65545;SDS011;52177;55.968;37.498;2023-08-17T02:24:22;12.63;;;6.70;;
65545;SDS011;52177;55.968;37.498;2023-08-17T02:24:52;10.30;;;6.93;;
65545;SDS011;52177;55.968;37.498;2023-08-17T02:25:22;9.07;;;6.38;;
65545;SDS011;52177;55.968;37.498;2023-08-17T02:25:53;9.38;;;6.40;;
65545;SDS011;52177;55.968;37.498;2023-08-17T02:26:23;12.63;;;7.95;;
65545;SDS011;52177;55.968;37.498;2023-08-17T02:26:53;13.52;;;6.75;;
65545;SDS011;52177;55.968;37.498;2023-08-17T02:27:24;11.68;;;7.18;;
65545;SDS011;52177;55.968;37.498;2023-08-17T02:27:54;15.55;;;6.95;;
65545;SDS011;52177;55.968;37.498;2023-08-17T02:28:25;9.25;;;6.25;;
65545;SDS011;52177;55.968;37.498;2023-08-17T02:28:55;8.88;;;6.95;;
65545;SDS011;52177;55.968;37.498;2023-08-17T02:29:25;13.63;;;6.55;;
65545;SDS011;52177;55.968;37.498;2023-08-17T02:29:56;9.25;;;6.38;;
65545;SDS011;52177;55.968;37.498;2023-08-17T02:30:26;12.55;;;6.85;;
65545;SDS011;52177;55.968;37.498;2023-08-17T02:30:58;7.78;;;6.68;;
65545;SDS011;52177;55.968;37.498;2023-08-17T02:31:28;9.18;;;6.70;;
65545;SDS011;52177;55.968;37.498;2023-08-17T02:31:59;14.82;;;7.18;;
65545;SDS011;52177;55.968;37.498;2023-08-17T02:32:29;8.38;;;6.45;;
65545;SDS011;52177;55.968;37.498;2023-08-17T02:33:00;13.68;;;6.28;;
65545;SDS011;52177;55.968;37.498;2023-08-17T02:33:30;8.73;;;6.60;;
65545;SDS011;52177;55.968;37.498;2023-08-17T02:34:00;12.90;;;6.63;;
65545;SDS011;52177;55.968;37.498;2023-08-17T02:34:35;10.35;;;6.63;;
65545;SDS011;52177;55.968;37.498;2023-08-17T02:35:06;8.02;;;6.68;;
65545;SDS011;52177;55.968;37.498;2023-08-17T02:35:37;10.15;;;6.43;;
65545;SDS011;52177;55.968;37.498;2023-08-17T02:36:07;8.32;;;6.65;;
65545;SDS011;52177;55.968;37.498;2023-08-17T02:36:37;8.68;;;6.30;;
65545;SDS011;52177;55.968;37.498;2023-08-17T02:37:08;8.02;;;6.72;;
65545;SDS011;52177;55.968;37.498;2023-08-17T02:37:38;9.38;;;6.43;;
65545;SDS011;52177;55.968;37.498;2023-08-17T02:38:09;13.80;;;6.85;;
65545;SDS011;52177;55.968;37.498;2023-08-17T02:38:39;12.38;;;7.15;;
65545;SDS011;52177;55.968;37.498;2023-08-17T02:39:09;7.72;;;5.82;;
65545;SDS011;52177;55.968;37.498;2023-08-17T02:39:40;16.23;;;7.10;;
65545;SDS011;52177;55.968;37.498;2023-08-17T02:40:11;8.88;;;6.38;;
65545;SDS011;52177;55.968;37.498;2023-08-17T02:40:41;9.73;;;6.57;;
65545;SDS011;52177;55.968;37.498;2023-08-17T02:41:12;9.48;;;6.70;;
65545;SDS011;52177;55.968;37.498;2023-08-17T02:41:42;13.57;;;6.68;;
65545;SDS011;52177;55.968;37.498;2023-08-17T02:42:14;14.63;;;6.72;;
65545;SDS011;52177;55.968;37.498;2023-08-17T02:42:45;13.50;;;6.60;;
65545;SDS011;52177;55.968;37.498;2023-08-17T02:43:15;14.63;;;6.65;;
65545;SDS011;52177;55.968;37.498;2023-08-17T02:43:46;11.43;;;6.72;;
65545;SDS011;52177;55.968;37.498;2023-08-17T02:44:16;9.75;;;6.32;;
65545;SDS011;52177;55.968;37.498;2023-08-17T02:44:47;14.90;;;7.10;;
65545;SDS011;52177;55.968;37.498;2023-08-17T02:45:17;9.20;;;6.25;;
65545;SDS011;52177;55.968;37.498;2023-08-17T02:45:48;10.80;;;6.28;;
65545;SDS011;52177;55.968;37.498;2023-08-17T02:46:18;10.27;;;6.15;;
65545;SDS011;52177;55.968;37.498;2023-08-17T02:46:48;13.63;;;6.53;;
65545;SDS011;52177;55.968;37.498;2023-08-17T02:47:19;10.77;;;6.93;;
65545;SDS011;52177;55.968;37.498;2023-08-17T02:47:49;9.30;;;6.50;;
65545;SDS011;52177;55.968;37.498;2023-08-17T02:48:20;9.50;;;6.22;;
65545;SDS011;52177;55.968;37.498;2023-08-17T02:48:50;11.45;;;6.65;;
65545;SDS011;52177;55.968;37.498;2023-08-17T02:49:21;13.27;;;6.40;;
65545;SDS011;52177;55.968;37.498;2023-08-17T02:49:51;8.48;;;6.72;;
65545;SDS011;52177;55.968;37.498;2023-08-17T02:50:22;12.93;;;6.18;;
65545;SDS011;52177;55.968;37.498;2023-08-17T02:50:52;11.90;;;6.35;;
65545;SDS011;52177;55.968;37.498;2023-08-17T02:51:22;11.88;;;6.75;;
65545;SDS011;52177;55.968;37.498;2023-08-17T02:51:53;9.05;;;6.90;;
65545;SDS011;52177;55.968;37.498;2023-08-17T02:52:23;11.43;;;6.88;;
65545;SDS011;52177;55.968;37.498;2023-08-17T02:52:54;11.60;;;6.60;;
65545;SDS011;52177;55.968;37.498;2023-08-17T02:53:24;9.25;;;6.20;;
65545;SDS011;52177;55.968;37.498;2023-08-17T02:53:55;9.23;;;6.05;;
65545;SDS011;52177;55.968;37.498;2023-08-17T02:54:25;13.52;;;6.10;;
65545;SDS011;52177;55.968;37.498;2023-08-17T02:54:55;8.88;;;6.65;;
65545;SDS011;52177;55.968;37.498;2023-08-17T02:55:26;10.50;;;6.13;;
65545;SDS011;52177;55.968;37.498;2023-08-17T02:55:56;8.02;;;6.05;;
65545;SDS011;52177;55.968;37.498;2023-08-17T02:56:26;13.02;;;6.50;;
65545;SDS011;52177;55.968;37.498;2023-08-17T02:56:57;10.30;;;6.85;;
65545;SDS011;52177;55.968;37.498;2023-08-17T02:57:28;10.65;;;6.13;;
65545;SDS011;52177;55.968;37.498;2023-08-17T02:57:58;9.85;;;7.00;;
65545;SDS011;52177;55.968;37.498;2023-08-17T02:58:28;11.35;;;6.80;;
65545;SDS011;52177;55.968;37.498;2023-08-17T02:58:59;12.05;;;7.07;;
65545;SDS011;52177;55.968;37.498;2023-08-17T02:59:29;12.07;;;6.53;;
65545;SDS011;52177;55.968;37.498;2023-08-17T02:59:59;8.82;;;6.18;;
65545;SDS011;52177;55.968;37.498;2023-08-17T03:00:30;9.40;;;7.13;;
65545;SDS011;52177;55.968;37.498;2023-08-17T03:01:02;9.52;;;5.95;;
65545;SDS011;52177;55.968;37.498;2023-08-17T03:01:32;10.18;;;6.22;;
65545;SDS011;52177;55.968;37.498;2023-08-17T03:02:03;11.40;;;6.30;;
65545;SDS011;52177;55.968;37.498;2023-08-17T03:02:33;10.00;;;6.40;;
65545;SDS011;52177;55.968;37.498;2023-08-17T03:03:04;10.93;;;6.45;;
65545;SDS011;52177;55.968;37.498;2023-08-17T03:03:34;10.60;;;5.88;;
65545;SDS011;52177;55.968;37.498;2023-08-17T03:04:05;10.98;;;6.78;;
65545;SDS011;52177;55.968;37.498;2023-08-17T03:04:35;13.57;;;6.55;;
65545;SDS011;52177;55.968;37.498;2023-08-17T03:05:06;12.70;;;6.43;;
65545;SDS011;52177;55.968;37.498;2023-08-17T03:05:36;11.48;;;6.43;;
65545;SDS011;52177;55.968;37.498;2023-08-17T03:06:07;8.48;;;6.60;;
65545;SDS011;52177;55.968;37.498;2023-08-17T03:06:37;15.70;;;6.75;;